Time;durP1;ratioP1;P1;durP2;ratioP2;P2;SDS_P1;SDS_P2;PMS_P1;PMS_P2;Temp;Humidity;BMP_temperature;BMP_pressure;BME280_temperature;BME280_humidity;BME280_pressure;Samples;Min_cycle;Max_cycle;Signal;HPM_P1;HPM_P2
2022/08/24 00:01:41;;;;;;;2.00;0.70;;;;;;;19.36;90.88;100533.84;4984950;28;20367;-69
2022/08/24 00:04:06;;;;;;;1.17;0.60;;;;;;;19.33;90.68;100539.34;5020869;28;20029;-69
2022/08/24 00:06:32;;;;;;;2.38;0.70;;;;;;;19.30;90.68;100526.78;5003842;28;20482;-69
2022/08/24 00:08:57;;;;;;;1.48;0.47;;;;;;;19.29;90.83;100527.16;5003643;28;20095;-69
2022/08/24 00:11:23;;;;;;;1.60;0.50;;;;;;;19.20;91.18;100527.28;5019856;28;20030;-69
2022/08/24 00:13:49;;;;;;;1.42;0.70;;;;;;;19.19;91.86;100525.63;5002248;28;20033;-69
2022/08/24 00:16:15;;;;;;;1.30;0.60;;;;;;;19.17;91.63;100531.63;5003111;28;20064;-69
2022/08/24 00:18:40;;;;;;;2.00;0.50;;;;;;;19.11;91.50;100530.22;5020256;28;20056;-69
2022/08/24 00:21:06;;;;;;;1.38;0.50;;;;;;;19.13;91.02;100533.47;5032846;28;20418;-69
2022/08/24 00:23:32;;;;;;;0.88;0.60;;;;;;;19.09;91.14;100528.94;5004122;28;20601;-69
2022/08/24 00:25:58;;;;;;;1.85;0.50;;;;;;;19.09;90.93;100532.56;5000689;28;20033;-69
2022/08/24 00:28:23;;;;;;;2.35;0.60;;;;;;;19.07;91.21;100526.44;5003620;28;20029;-69
2022/08/24 00:30:49;;;;;;;3.78;0.60;;;;;;;19.06;90.87;100532.44;5036590;28;20060;-68
2022/08/24 00:33:15;;;;;;;1.05;0.60;;;;;;;19.02;90.97;100528.69;5018086;28;20121;-69
2022/08/24 00:35:41;;;;;;;1.13;0.80;;;;;;;18.98;91.25;100532.19;5023078;28;20108;-69
2022/08/24 00:38:07;;;;;;;1.30;0.60;;;;;;;18.95;91.29;100532.09;4993060;28;20033;-69
2022/08/24 00:40:35;;;;;;;0.98;0.50;;;;;;;18.92;90.96;100527.16;5003105;28;20036;-68
2022/08/24 00:43:03;;;;;;;1.38;0.60;;;;;;;18.86;91.02;100523.75;5002956;28;20068;-68
2022/08/24 00:45:34;;;;;;;0.90;0.55;;;;;;;18.88;91.21;100520.56;5020210;28;20033;-69
2022/08/24 00:48:02;;;;;;;1.77;0.60;;;;;;;18.85;91.11;100521.28;5011395;28;20021;-69
2022/08/24 00:50:36;;;;;;;0.80;0.52;;;;;;;18.80;91.53;100524.31;5003293;28;20057;-69
2022/08/24 00:53:03;;;;;;;3.95;0.50;;;;;;;18.75;91.19;100522.56;5039429;28;20056;-69
2022/08/24 00:55:34;;;;;;;1.98;0.70;;;;;;;18.73;91.26;100522.88;4986862;28;20120;-69
2022/08/24 00:58:14;;;;;;;2.80;0.80;;;;;;;18.73;91.45;100528.50;5012032;28;20036;-68
2022/08/24 01:00:44;;;;;;;1.85;0.70;;;;;;;18.71;91.20;100530.00;5003521;28;20413;-68
2022/08/24 01:03:09;;;;;;;1.58;0.90;;;;;;;18.67;91.48;100529.09;5018789;28;20056;-68
2022/08/24 01:05:35;;;;;;;1.27;0.60;;;;;;;18.63;91.52;100525.31;5006778;28;20037;-69
2022/08/24 01:08:02;;;;;;;2.03;0.70;;;;;;;18.60;91.34;100523.19;4996860;28;20030;-69
2022/08/24 01:10:28;;;;;;;0.90;0.63;;;;;;;18.58;91.65;100519.91;4986641;28;20041;-69
2022/08/24 01:12:59;;;;;;;0.50;0.50;;;;;;;18.57;91.44;100523.91;5000961;28;20032;-68
2022/08/24 01:15:24;;;;;;;1.85;0.68;;;;;;;18.57;91.67;100512.66;5020695;28;20041;-69
2022/08/24 01:20:36;;;;;;;1.52;0.50;;;;;;;18.44;91.73;100509.81;4998895;28;20042;-68
2022/08/24 01:23:23;;;;;;;1.65;0.68;;;;;;;18.41;91.81;100510.47;5018362;28;20129;-68
2022/08/24 01:25:49;;;;;;;0.82;0.60;;;;;;;18.41;91.70;100512.47;5031630;28;20029;-69
2022/08/24 01:28:17;;;;;;;4.22;0.70;;;;;;;18.41;91.79;100515.28;5024631;28;20053;-69
2022/08/24 01:30:43;;;;;;;1.23;0.77;;;;;;;18.41;91.49;100509.66;5015918;28;20120;-68
2022/08/24 01:33:08;;;;;;;5.65;0.82;;;;;;;18.36;92.05;100507.06;5014981;28;20060;-69
2022/08/24 01:35:35;;;;;;;2.60;0.90;;;;;;;18.35;91.86;100511.88;5001701;28;20034;-69
2022/08/24 01:38:02;;;;;;;2.25;0.50;;;;;;;18.34;91.52;100512.25;5018816;28;20033;-69
2022/08/24 01:40:33;;;;;;;1.27;0.73;;;;;;;18.27;91.50;100513.59;5007626;28;20120;-69
2022/08/24 01:42:58;;;;;;;2.67;0.47;;;;;;;18.26;91.86;100519.59;5015536;28;20481;-69
2022/08/24 01:45:24;;;;;;;1.23;0.60;;;;;;;18.26;91.75;100520.41;4997981;28;20056;-68
2022/08/24 01:47:50;;;;;;;0.93;0.60;;;;;;;18.25;91.36;100521.56;4985823;28;20033;-69
2022/08/24 01:50:16;;;;;;;1.45;0.50;;;;;;;18.22;92.09;100518.63;5018765;28;20033;-69
2022/08/24 01:52:41;;;;;;;1.58;0.80;;;;;;;18.22;91.87;100524.25;4985723;28;20033;-68
2022/08/24 01:55:11;;;;;;;1.63;0.82;;;;;;;18.15;92.30;100521.19;5001963;28;20044;-69
2022/08/24 01:57:36;;;;;;;1.48;0.68;;;;;;;18.12;92.29;100519.88;5002396;28;20061;-69
2022/08/24 02:00:04;;;;;;;1.40;0.60;;;;;;;18.12;92.34;100519.88;5001114;28;20486;-69
2022/08/24 02:02:30;;;;;;;2.60;0.70;;;;;;;18.10;92.02;100522.22;5017024;28;20394;-69
2022/08/24 02:04:55;;;;;;;1.50;0.80;;;;;;;18.06;92.25;100527.69;5018217;28;20029;-69
2022/08/24 02:07:21;;;;;;;1.83;0.70;;;;;;;18.03;92.05;100522.78;5036345;28;20040;-69
2022/08/24 02:09:47;;;;;;;2.08;0.65;;;;;;;18.01;91.77;100522.28;5024288;28;20069;-69
2022/08/24 02:12:12;;;;;;;4.03;0.80;;;;;;;17.98;92.25;100517.34;4984591;28;20037;-69
2022/08/24 02:14:38;;;;;;;1.30;0.65;;;;;;;17.98;91.70;100522.16;5018160;28;20053;-69
2022/08/24 02:17:04;;;;;;;3.17;0.70;;;;;;;17.96;92.01;100516.06;5008379;28;20029;-69
2022/08/24 02:19:30;;;;;;;8.27;0.90;;;;;;;17.94;92.04;100516.41;5001525;28;20029;-69
2022/08/24 02:21:55;;;;;;;1.42;0.70;;;;;;;17.93;91.86;100513.94;4998839;28;20045;-69
2022/08/24 02:24:21;;;;;;;1.80;0.60;;;;;;;17.91;92.13;100524.69;5034978;28;20232;-69
2022/08/24 02:26:48;;;;;;;1.33;0.70;;;;;;;17.89;91.88;100519.44;5035492;28;20021;-68
2022/08/24 02:29:13;;;;;;;2.63;0.70;;;;;;;17.87;92.11;100524.56;5018073;28;20026;-69
2022/08/24 02:31:38;;;;;;;1.02;0.90;;;;;;;17.85;92.29;100521.25;5035547;28;20034;-68
2022/08/24 02:34:04;;;;;;;5.82;0.88;;;;;;;17.81;91.97;100517.50;5053777;28;20037;-69
2022/08/24 02:36:30;;;;;;;1.20;0.80;;;;;;;17.81;92.25;100517.50;5039135;28;20037;-68
2022/08/24 02:38:55;;;;;;;3.25;1.08;;;;;;;17.77;92.38;100516.50;5004385;28;20052;-69
2022/08/24 02:41:23;;;;;;;0.90;0.50;;;;;;;17.77;92.09;100508.91;5023157;28;20037;-69
2022/08/24 02:43:49;;;;;;;3.08;0.80;;;;;;;17.76;92.18;100520.50;5028892;28;20468;-69
2022/08/24 02:46:24;;;;;;;1.25;0.60;;;;;;;17.74;92.25;100520.81;5038133;28;20041;-69
2022/08/24 02:48:49;;;;;;;3.65;0.70;;;;;;;17.73;92.42;100512.75;5006009;28;20025;-69
2022/08/24 02:51:22;;;;;;;3.17;0.70;;;;;;;17.71;92.46;100517.88;5022080;28;20036;-69
2022/08/24 02:53:48;;;;;;;0.82;0.60;;;;;;;17.66;92.57;100518.91;5036671;28;20088;-69
2022/08/24 02:56:14;;;;;;;2.10;0.60;;;;;;;17.65;92.64;100517.25;5005277;28;20033;-69
2022/08/24 02:58:39;;;;;;;1.63;0.80;;;;;;;17.63;92.83;100511.16;5022219;28;20389;-69
2022/08/24 03:01:05;;;;;;;3.90;0.70;;;;;;;17.60;92.65;100526.69;5039348;28;20561;-69
2022/08/24 03:03:31;;;;;;;3.05;0.70;;;;;;;17.59;92.62;100525.06;5018541;28;20544;-69
2022/08/24 03:05:57;;;;;;;2.65;0.60;;;;;;;17.57;92.42;100515.34;4996142;28;20040;-68
2022/08/24 03:08:22;;;;;;;1.77;0.70;;;;;;;17.55;92.75;100517.66;5005261;28;20529;-69
2022/08/24 03:10:48;;;;;;;1.50;0.80;;;;;;;17.56;92.62;100510.91;4988034;28;20029;-69
2022/08/24 03:13:14;;;;;;;2.67;0.80;;;;;;;17.54;92.63;100516.84;5037781;28;20052;-68
2022/08/24 03:15:39;;;;;;;2.85;0.60;;;;;;;17.46;92.33;100505.66;5001302;28;20034;-69
2022/08/24 03:18:05;;;;;;;1.63;0.50;;;;;;;17.43;92.91;100513.59;5004482;28;20045;-69
2022/08/24 03:20:30;;;;;;;2.30;0.52;;;;;;;17.43;92.75;100515.59;5014143;28;20040;-69
2022/08/24 03:22:56;;;;;;;0.95;0.70;;;;;;;17.42;93.24;100511.16;5020938;28;20050;-69
2022/08/24 03:25:23;;;;;;;1.02;0.60;;;;;;;17.40;93.25;100507.84;5021429;28;20033;-69
2022/08/24 03:27:49;;;;;;;2.35;0.60;;;;;;;17.38;93.06;100512.97;5016337;28;20547;-69
2022/08/24 03:30:15;;;;;;;2.63;0.60;;;;;;;17.36;93.00;100510.53;4983627;28;20239;-69
2022/08/24 03:32:40;;;;;;;1.48;0.60;;;;;;;17.34;92.88;100512.84;5001359;28;20037;-69
2022/08/24 03:35:07;;;;;;;1.60;0.60;;;;;;;17.31;93.08;100516.34;5019630;28;20055;-69
2022/08/24 03:37:32;;;;;;;3.42;0.90;;;;;;;17.31;92.75;100518.31;5004569;28;20124;-69
2022/08/24 03:39:58;;;;;;;3.33;0.70;;;;;;;17.29;92.86;100513.03;5021038;28;20033;-69
2022/08/24 03:42:24;;;;;;;2.38;0.70;;;;;;;17.25;92.92;100508.47;5003775;28;20075;-69
2022/08/24 03:44:49;;;;;;;1.25;0.50;;;;;;;17.23;92.85;100507.97;5002566;28;20033;-69
2022/08/24 03:47:15;;;;;;;1.75;0.70;;;;;;;17.20;93.11;100507.47;5003963;28;20041;-69
2022/08/24 03:49:40;;;;;;;1.63;0.60;;;;;;;17.19;92.91;100511.47;4988417;28;20025;-68
2022/08/24 03:52:06;;;;;;;1.13;0.50;;;;;;;17.19;93.15;100505.84;5004403;28;20025;-69
2022/08/24 03:54:31;;;;;;;1.73;0.63;;;;;;;17.19;92.79;100505.03;5015019;28;20042;-69
2022/08/24 03:56:57;;;;;;;3.38;0.60;;;;;;;17.15;92.74;100510.47;4987870;28;20392;-69
2022/08/24 03:59:23;;;;;;;0.63;0.50;;;;;;;17.12;92.88;100519.56;5020993;28;20567;-69
2022/08/24 04:01:48;;;;;;;1.75;0.60;;;;;;;17.13;92.89;100517.59;5018931;28;20030;-69
2022/08/24 04:04:14;;;;;;;0.68;0.50;;;;;;;17.07;93.13;100511.34;5003495;28;20033;-69
2022/08/24 04:06:43;;;;;;;1.00;0.52;;;;;;;17.08;93.05;100518.63;5020308;28;20059;-69
2022/08/24 04:09:09;;;;;;;0.88;0.50;;;;;;;17.05;92.88;100518.44;5000970;28;20510;-69
2022/08/24 04:11:34;;;;;;;2.58;0.80;;;;;;;17.05;93.11;100513.69;5000725;28;20105;-68
2022/08/24 04:14:00;;;;;;;1.30;0.60;;;;;;;17.03;93.14;100513.19;5001961;28;20037;-69
2022/08/24 04:16:26;;;;;;;1.58;0.63;;;;;;;17.05;92.77;100504.41;5017855;28;20056;-69
2022/08/24 04:18:51;;;;;;;1.83;0.80;;;;;;;17.02;93.21;100505.09;5018783;28;20095;-69
2022/08/24 04:21:22;;;;;;;1.70;0.70;;;;;;;17.00;93.10;100499.84;5003138;28;20041;-69
2022/08/24 04:23:48;;;;;;;1.00;0.70;;;;;;;16.98;93.13;100504.97;5017211;28;20037;-69
2022/08/24 04:26:14;;;;;;;1.92;0.73;;;;;;;16.97;93.08;100501.34;5019824;28;20034;-69
2022/08/24 04:28:39;;;;;;;3.67;0.90;;;;;;;16.96;93.29;100510.88;5010076;28;20029;-68
2022/08/24 04:31:05;;;;;;;3.55;0.70;;;;;;;16.96;93.07;100518.50;4986388;28;20496;-69
2022/08/24 04:33:31;;;;;;;1.63;0.70;;;;;;;16.96;92.88;100508.09;5020103;28;20026;-69
2022/08/24 04:35:56;;;;;;;0.85;0.65;;;;;;;16.96;92.92;100512.88;5015032;28;20029;-68
2022/08/24 04:38:22;;;;;;;1.63;0.80;;;;;;;16.97;92.99;100511.75;4979205;28;20069;-69
2022/08/24 04:40:47;;;;;;;2.65;1.25;;;;;;;16.95;92.88;100516.84;4984153;28;20116;-69
2022/08/24 04:43:16;;;;;;;3.53;0.82;;;;;;;16.93;92.43;100508.75;5019819;28;20037;-69
2022/08/24 04:45:42;;;;;;;1.42;0.60;;;;;;;16.92;92.93;100509.13;4986605;28;20030;-68
2022/08/24 04:48:08;;;;;;;1.13;0.70;;;;;;;16.92;92.79;100511.91;5019900;28;20112;-68
2022/08/24 04:50:35;;;;;;;2.00;0.80;;;;;;;16.88;93.06;100513.75;5019947;28;20037;-69
2022/08/24 04:53:04;;;;;;;2.80;0.85;;;;;;;16.87;93.11;100507.31;5019028;28;20576;-69
2022/08/24 04:55:30;;;;;;;2.63;0.80;;;;;;;16.89;93.00;100501.38;5019666;28;20092;-69
2022/08/24 04:57:55;;;;;;;2.97;0.70;;;;;;;16.92;92.68;100495.09;5017715;28;20474;-69
2022/08/24 05:00:21;;;;;;;2.15;0.70;;;;;;;16.87;93.17;100503.69;5019484;28;20048;-69
2022/08/24 05:02:46;;;;;;;1.15;0.60;;;;;;;16.85;93.21;100500.38;5019611;28;20034;-68
2022/08/24 05:05:12;;;;;;;3.00;0.75;;;;;;;16.83;93.33;100497.13;5002280;28;20029;-69
2022/08/24 05:07:38;;;;;;;2.03;0.63;;;;;;;16.82;93.53;100501.06;5019447;28;20496;-69
2022/08/24 05:10:04;;;;;;;1.67;0.70;;;;;;;16.82;93.49;100512.28;5033697;28;20038;-69
2022/08/24 05:12:30;;;;;;;1.95;0.70;;;;;;;16.80;93.45;100514.59;5003071;28;20068;-69
2022/08/24 05:14:56;;;;;;;1.48;0.82;;;;;;;16.78;93.84;100500.09;5018752;28;20083;-69
2022/08/24 05:17:22;;;;;;;2.90;0.75;;;;;;;16.79;93.50;100510.16;5011117;28;20038;-69
2022/08/24 05:19:49;;;;;;;2.78;0.80;;;;;;;16.78;93.67;100506.53;5019399;28;20529;-68
2022/08/24 05:22:14;;;;;;;3.45;0.90;;;;;;;16.75;93.84;100508.00;5002813;28;20168;-68
2022/08/24 05:24:40;;;;;;;2.55;0.80;;;;;;;16.74;94.02;100506.38;5000318;28;20060;-69
2022/08/24 05:27:05;;;;;;;1.80;0.60;;;;;;;16.78;94.25;100502.91;5030520;28;20033;-68
2022/08/24 05:29:33;;;;;;;1.55;0.68;;;;;;;16.78;94.18;100511.31;5000798;28;20037;-68
2022/08/24 05:31:59;;;;;;;1.00;0.85;;;;;;;16.77;94.63;100498.44;5035574;28;20598;-68
2022/08/24 05:34:24;;;;;;;1.92;0.80;;;;;;;16.78;94.27;100506.53;5019339;28;20036;-69
2022/08/24 05:36:50;;;;;;;3.55;0.90;;;;;;;16.79;94.40;100513.78;5001986;28;20083;-69
2022/08/24 05:39:15;;;;;;;1.00;0.70;;;;;;;16.81;94.41;100513.47;4995370;28;20075;-68
2022/08/24 05:41:41;;;;;;;0.70;0.60;;;;;;;16.78;94.88;100514.13;5051866;28;20029;-69
2022/08/24 05:44:08;;;;;;;2.53;0.93;;;;;;;16.78;96.23;100514.13;5007983;28;20025;-70
2022/08/24 05:46:33;;;;;;;1.17;1.00;;;;;;;16.78;96.73;100508.53;5002272;28;20042;-70
2022/08/24 05:48:59;;;;;;;1.60;1.35;;;;;;;16.80;98.09;100506.19;5017312;28;20105;-70
2022/08/24 05:51:24;;;;;;;2.97;1.30;;;;;;;16.81;98.37;100519.06;5018605;28;20375;-70
2022/08/24 05:53:50;;;;;;;3.70;1.80;;;;;;;16.82;98.37;100524.31;4999024;28;20030;-70
2022/08/24 05:56:16;;;;;;;2.25;1.30;;;;;;;16.87;98.22;100523.31;5001576;28;20025;-70
2022/08/24 05:58:42;;;;;;;3.67;1.25;;;;;;;16.87;98.43;100523.31;5018540;28;20080;-70
2022/08/24 06:01:09;;;;;;;1.95;1.17;;;;;;;16.89;97.62;100523.81;5001527;28;20112;-70
2022/08/24 06:03:36;;;;;;;5.53;1.38;;;;;;;16.93;99.21;100527.59;4998372;28;20428;-70
2022/08/24 06:06:02;;;;;;;2.85;1.38;;;;;;;16.96;98.92;100527.72;5001642;28;20529;-70
2022/08/24 06:08:28;;;;;;;2.58;1.80;;;;;;;17.02;100.00;100530.34;5018249;28;20089;-70
2022/08/24 06:10:54;;;;;;;3.63;1.52;;;;;;;17.08;100.00;100531.81;5002237;28;20026;-70
2022/08/24 06:13:20;;;;;;;1.95;1.50;;;;;;;17.10;100.00;100519.06;5002110;28;20036;-70
2022/08/24 06:15:45;;;;;;;2.72;1.92;;;;;;;17.17;100.00;100530.59;5034112;28;20038;-70
2022/08/24 06:18:11;;;;;;;2.78;1.35;;;;;;;17.25;100.00;100530.91;5000182;28;20122;-70
2022/08/24 06:20:38;;;;;;;2.13;1.50;;;;;;;17.30;100.00;100527.88;4998161;28;20036;-70
2022/08/24 06:23:04;;;;;;;1.40;1.30;;;;;;;17.35;100.00;100528.50;5001920;28;20551;-70
2022/08/24 06:28:14;;;;;;;2.47;1.23;;;;;;;17.49;100.00;100524.63;5020871;28;20118;-70
2022/08/24 06:30:41;;;;;;;2.40;1.65;;;;;;;17.55;100.00;100521.31;5034608;28;20041;-71
2022/08/24 06:33:07;;;;;;;1.98;1.40;;;;;;;17.60;100.00;100526.69;5018304;28;20083;-71
2022/08/24 06:35:32;;;;;;;1.70;1.48;;;;;;;17.64;100.00;100516.44;5018108;28;20037;-71
2022/08/24 06:37:58;;;;;;;2.10;1.60;;;;;;;17.69;100.00;100523.00;5018354;28;20040;-71
2022/08/24 06:40:24;;;;;;;4.40;1.58;;;;;;;17.71;100.00;100520.69;5034031;28;20018;-71
2022/08/24 06:42:50;;;;;;;2.47;1.80;;;;;;;17.75;100.00;100528.09;5016853;28;20492;-71
2022/08/24 06:45:15;;;;;;;2.13;1.25;;;;;;;17.81;100.00;100523.13;5004919;28;20037;-71
2022/08/24 06:47:41;;;;;;;2.05;1.10;;;;;;;17.87;100.00;100521.75;5018136;28;20064;-71
2022/08/24 06:50:07;;;;;;;1.30;1.00;;;;;;;17.94;100.00;100509.94;4985829;28;20410;-71
2022/08/24 06:52:33;;;;;;;1.42;0.98;;;;;;;18.00;100.00;100526.28;5034407;28;20037;-70
2022/08/24 06:54:59;;;;;;;2.08;1.40;;;;;;;18.05;100.00;100522.41;5001283;28;20034;-71
2022/08/24 06:57:24;;;;;;;1.85;0.85;;;;;;;18.09;100.00;100532.63;5001074;28;20041;-72
2022/08/24 06:59:50;;;;;;;1.50;1.25;;;;;;;18.14;100.00;100519.53;5034129;28;20079;-72
2022/08/24 07:02:17;;;;;;;1.63;0.90;;;;;;;18.17;100.00;100519.66;5034648;28;20033;-72
2022/08/24 07:04:43;;;;;;;1.05;0.90;;;;;;;18.22;100.00;100524.25;5017915;28;20030;-72
2022/08/24 07:07:09;;;;;;;1.88;0.80;;;;;;;18.27;100.00;100521.22;5001348;28;20044;-72
2022/08/24 07:09:34;;;;;;;1.30;1.17;;;;;;;18.34;100.00;100527.13;5008500;28;20069;-72
2022/08/24 07:12:00;;;;;;;1.67;1.13;;;;;;;18.40;100.00;100519.28;5026707;28;20030;-72
2022/08/24 07:14:26;;;;;;;2.25;0.93;;;;;;;18.47;100.00;100528.81;5012168;28;20030;-71
2022/08/24 07:16:52;;;;;;;2.05;0.65;;;;;;;18.56;100.00;100522.25;5012241;28;20045;-71
2022/08/24 07:19:17;;;;;;;1.23;1.13;;;;;;;18.64;100.00;100515.72;5016781;28;20036;-71
2022/08/24 07:21:43;;;;;;;0.60;0.50;;;;;;;18.71;100.00;100519.56;5020470;28;20054;-71
2022/08/24 07:24:09;;;;;;;2.47;1.05;;;;;;;18.81;100.00;100518.34;5003196;28;20026;-71
2022/08/24 07:26:35;;;;;;;1.60;1.50;;;;;;;18.88;100.00;100515.75;5013903;28;20120;-71
2022/08/24 07:29:05;;;;;;;1.20;1.10;;;;;;;18.98;100.00;100522.94;5037667;28;20029;-72
2022/08/24 07:31:35;;;;;;;1.95;0.88;;;;;;;19.11;100.00;100526.56;5017760;28;20036;-71
2022/08/24 07:34:01;;;;;;;1.52;0.75;;;;;;;19.21;100.00;100526.09;5018383;28;20026;-71
2022/08/24 07:36:27;;;;;;;2.67;1.52;;;;;;;19.33;100.00;100534.53;5007772;28;20033;-71
2022/08/24 07:38:52;;;;;;;3.83;2.40;;;;;;;19.43;100.00;100538.88;5025893;28;20068;-71
2022/08/24 07:41:19;;;;;;;2.75;2.20;;;;;;;19.53;100.00;100534.75;5016032;28;20033;-72
2022/08/24 07:43:45;;;;;;;4.22;3.10;;;;;;;19.65;100.00;100534.75;5020557;28;20067;-72
2022/08/24 07:46:12;;;;;;;4.22;2.40;;;;;;;19.74;100.00;100538.28;5021007;28;20030;-71
2022/08/24 07:48:38;;;;;;;4.50;2.30;;;;;;;19.83;100.00;100538.94;5004792;28;20025;-72
2022/08/24 07:51:11;;;;;;;3.38;2.95;;;;;;;19.95;100.00;100535.31;4992788;28;20414;-72
2022/08/24 07:53:36;;;;;;;4.07;2.50;;;;;;;20.07;100.00;100545.72;5036813;28;20083;-72
2022/08/24 07:56:02;;;;;;;4.05;2.28;;;;;;;20.19;100.00;100542.00;5029872;28;20029;-71
2022/08/24 07:58:27;;;;;;;3.80;2.78;;;;;;;20.30;100.00;100549.59;4995190;28;20029;-71
2022/08/24 08:00:53;;;;;;;4.65;3.33;;;;;;;20.43;100.00;100546.75;5004243;28;20029;-71
2022/08/24 08:03:20;;;;;;;5.35;3.22;;;;;;;20.55;100.00;100543.88;5023492;28;20032;-71
2022/08/24 08:05:45;;;;;;;5.65;3.45;;;;;;;20.68;100.00;100547.47;5020912;28;20069;-71
2022/08/24 08:08:11;;;;;;;4.68;4.13;;;;;;;20.82;100.00;100544.19;5004078;28;20048;-72
2022/08/24 08:10:36;;;;;;;5.38;4.22;;;;;;;20.92;100.00;100546.47;5035594;28;20038;-71
2022/08/24 08:13:03;;;;;;;5.78;3.70;;;;;;;21.07;100.00;100540.00;5020190;28;20033;-71
2022/08/24 08:15:28;;;;;;;3.92;2.00;;;;;;;21.22;100.00;100544.00;5017162;28;20554;-71
2022/08/24 08:17:54;;;;;;;6.95;3.72;;;;;;;21.34;100.00;100535.44;5003073;28;20033;-71
2022/08/24 08:20:19;;;;;;;4.60;2.35;;;;;;;21.51;100.00;100539.91;5037143;28;20033;-71
2022/08/24 08:25:30;;;;;;;1.25;0.82;;;;;;;21.83;99.41;100531.34;5024186;28;20040;-72
2022/08/24 08:27:56;;;;;;;2.97;2.10;;;;;;;22.03;95.54;100535.00;5020206;28;20676;-71
2022/08/24 08:30:21;;;;;;;1.65;0.85;;;;;;;22.20;93.05;100534.56;5015141;28;20026;-71
2022/08/24 08:32:47;;;;;;;3.92;2.05;;;;;;;22.39;95.02;100536.56;5036428;28;20063;-71
2022/08/24 08:35:13;;;;;;;3.13;1.58;;;;;;;22.56;93.46;100540.94;5012978;28;20032;-71
2022/08/24 08:37:38;;;;;;;4.65;2.95;;;;;;;22.72;95.92;100529.53;5019906;28;20038;-72
2022/08/24 08:40:06;;;;;;;3.97;2.70;;;;;;;22.88;95.62;100523.75;5019873;28;20088;-71
2022/08/24 08:42:55;;;;;;;3.63;2.50;;;;;;;23.06;94.79;100527.72;4999117;28;20482;-71
2022/08/24 08:45:28;;;;;;;5.72;3.00;;;;;;;23.21;94.02;100523.13;5019747;28;20026;-72
2022/08/24 08:48:09;;;;;;;4.10;2.65;;;;;;;23.39;93.02;100520.56;5020782;28;20482;-72
2022/08/24 08:50:39;;;;;;;5.20;3.20;;;;;;;23.56;92.51;100513.53;5034795;28;20088;-71
2022/08/24 08:53:35;;;;;;;6.65;2.38;;;;;;;23.74;91.30;100523.16;5037125;28;20478;-71
2022/08/24 08:56:16;;;;;;;6.13;3.83;;;;;;;23.93;92.44;100525.03;5034424;28;20037;-71
2022/08/24 08:59:30;;;;;;;3.70;1.40;;;;;;;24.15;90.48;100523.28;5036116;28;20436;-71
2022/08/24 09:02:03;;;;;;;;;;;;;;;24.36;86.71;100519.06;5029666;28;20054;-70
2022/08/24 09:04:35;;;;;;;3.47;1.30;;;;;;;24.56;86.25;100516.88;5036988;28;19909;-71
2022/08/24 09:07:19;;;;;;;4.00;2.67;;;;;;;24.74;87.12;100513.03;5035336;28;20033;-70
2022/08/24 09:09:56;;;;;;;5.35;2.78;;;;;;;24.92;84.65;100509.53;5001460;28;20524;-69
2022/08/24 09:12:36;;;;;;;4.10;1.77;;;;;;;25.11;84.00;100514.97;5033199;28;20601;-69
2022/08/24 09:15:12;;;;;;;5.60;2.42;;;;;;;25.28;83.81;100507.03;5017407;28;20064;-70
2022/08/24 09:17:43;;;;;;;3.53;1.88;;;;;;;25.46;80.95;100496.56;5035477;28;20060;-69
2022/08/24 09:20:18;;;;;;;4.35;1.90;;;;;;;25.63;80.29;100490.19;5035667;28;20041;-69
2022/08/24 09:22:46;;;;;;;2.95;1.70;;;;;;;25.80;78.63;100488.66;5035207;28;20065;-69
2022/08/24 09:25:45;;;;;;;4.25;2.00;;;;;;;25.97;78.71;100487.16;4987013;28;20403;-69
2022/08/24 09:28:15;;;;;;;2.58;1.70;;;;;;;26.14;78.79;100488.44;5023867;28;20045;-69
2022/08/24 09:31:06;;;;;;;4.63;1.67;;;;;;;26.33;77.93;100483.59;5035618;28;20037;-69
2022/08/24 09:33:37;;;;;;;4.82;2.80;;;;;;;26.52;78.58;100486.09;5036664;28;20437;-70
2022/08/24 09:36:15;;;;;;;4.05;2.00;;;;;;;26.67;76.34;100484.13;5015486;28;20588;-70
2022/08/24 09:39:03;;;;;;;4.30;2.20;;;;;;;26.86;75.33;100475.19;5033706;28;20033;-70
2022/08/24 09:41:53;;;;;;;7.53;3.63;;;;;;;27.07;73.40;100476.41;5028843;28;20044;-69
2022/08/24 09:44:27;;;;;;;4.20;2.30;;;;;;;27.26;72.56;100480.91;5029774;28;20120;-70
2022/08/24 09:46:59;;;;;;;2.65;2.10;;;;;;;27.44;72.16;100478.81;5002340;28;20440;-69
2022/08/24 09:49:47;;;;;;;2.45;1.58;;;;;;;27.65;72.69;100480.81;5035243;28;20120;-70
2022/08/24 09:52:30;;;;;;;6.32;2.38;;;;;;;27.75;69.13;100477.13;5034084;28;20037;-70
2022/08/24 09:55:08;;;;;;;6.97;2.15;;;;;;;27.91;69.75;100470.16;5036115;28;20034;-70
2022/08/24 09:57:37;;;;;;;4.05;1.92;;;;;;;27.94;67.04;100475.03;5034427;28;20037;-69
2022/08/24 10:00:13;;;;;;;4.80;1.92;;;;;;;27.91;65.95;100478.72;5036054;28;20446;-70
2022/08/24 10:02:38;;;;;;;3.53;1.52;;;;;;;27.99;66.56;100478.25;5017647;28;20033;-70
2022/08/24 10:05:22;;;;;;;4.57;1.25;;;;;;;28.00;66.72;100473.38;5055816;28;20598;-70
2022/08/24 10:08:12;;;;;;;5.50;1.77;;;;;;;28.04;67.20;100468.47;5018407;28;20044;-69
2022/08/24 10:10:56;;;;;;;4.80;1.40;;;;;;;28.06;66.43;100474.59;5009476;28;20034;-70
2022/08/24 10:13:27;;;;;;;2.55;1.20;;;;;;;28.22;66.49;100479.78;5018164;28;20037;-70
2022/08/24 10:16:21;;;;;;;1.90;1.20;;;;;;;28.29;65.86;100474.84;5032548;28;20033;-70
2022/08/24 10:19:18;;;;;;;3.70;1.40;;;;;;;28.43;64.14;100481.75;5021819;28;20054;-70
2022/08/24 10:22:07;;;;;;;2.65;1.20;;;;;;;28.51;62.21;100480.47;5004299;28;20445;-69
2022/08/24 10:24:38;;;;;;;1.05;0.90;;;;;;;28.59;63.55;100487.78;5025609;28;20052;-69
2022/08/24 10:27:20;;;;;;;2.58;0.80;;;;;;;28.66;61.14;100479.13;5034407;28;20664;-69
2022/08/24 10:30:29;;;;;;;2.67;0.90;;;;;;;28.70;60.00;100482.78;5013720;28;20116;-69
2022/08/24 10:33:18;;;;;;;2.22;0.90;;;;;;;28.76;61.82;100483.16;5033554;28;20041;-69
2022/08/24 10:35:51;;;;;;;1.10;0.60;;;;;;;28.78;61.77;100482.72;5014948;28;20046;-70
2022/08/24 10:42:04;;;;;;;2.80;0.90;;;;;;;28.83;61.93;100468.00;4998716;28;20075;-70
2022/08/24 10:44:43;;;;;;;;;;;;;;;28.87;60.47;100468.78;4999108;28;20076;-70
2022/08/24 10:47:25;;;;;;;1.20;0.80;;;;;;;28.91;59.43;100463.84;5031736;28;19921;-70
2022/08/24 10:50:14;;;;;;;1.67;0.70;;;;;;;29.00;60.41;100461.31;5034502;28;20037;-70
2022/08/24 10:53:01;;;;;;;1.70;0.80;;;;;;;29.07;59.73;100466.19;5029896;28;20034;-70
2022/08/24 10:55:29;;;;;;;1.35;0.77;;;;;;;29.16;59.17;100455.09;5037884;28;20030;-70
2022/08/24 10:58:16;;;;;;;2.58;0.60;;;;;;;29.22;58.71;100453.38;5036863;28;20044;-70
2022/08/24 11:00:42;;;;;;;0.60;0.60;;;;;;;29.27;56.75;100463.56;5035943;28;20393;-69
2022/08/24 11:03:09;;;;;;;0.55;0.50;;;;;;;29.31;56.36;100456.56;5037887;28;20037;-69
2022/08/24 11:05:50;;;;;;;1.50;0.60;;;;;;;29.36;55.83;100452.41;5005368;28;20032;-69
2022/08/24 11:08:30;;;;;;;3.03;0.52;;;;;;;29.40;55.28;100451.16;5006284;28;20025;-70
2022/08/24 11:11:09;;;;;;;1.25;0.50;;;;;;;29.48;54.46;100445.38;5045629;28;20121;-69
2022/08/24 11:13:36;;;;;;;2.53;0.55;;;;;;;29.60;55.29;100434.19;5037401;28;20497;-69
2022/08/24 11:16:02;;;;;;;2.17;0.40;;;;;;;29.67;54.29;100430.47;5012582;28;20054;-70
2022/08/24 11:18:53;;;;;;;4.22;0.40;;;;;;;29.87;53.61;100432.69;5035044;28;20032;-70
2022/08/24 11:21:31;;;;;;;1.63;0.50;;;;;;;30.03;52.70;100419.38;5037550;28;20107;-70
2022/08/24 11:24:04;;;;;;;0.70;0.40;;;;;;;30.16;52.63;100411.00;5039101;28;20040;-70
2022/08/24 11:26:30;;;;;;;0.35;0.25;;;;;;;30.33;51.38;100412.00;5025422;28;20022;-70
2022/08/24 11:28:59;;;;;;;0.73;0.30;;;;;;;30.50;50.42;100396.56;5037765;28;20052;-70
2022/08/24 11:31:32;;;;;;;1.75;0.30;;;;;;;30.66;49.54;100397.97;5037831;28;20030;-70
2022/08/24 11:34:02;;;;;;;;;;;;;;;30.81;49.00;100396.50;5038093;28;20497;-70
2022/08/24 11:36:31;;;;;;;3.38;0.30;;;;;;;30.99;50.10;100393.34;5038601;28;19967;-70
2022/08/24 11:39:25;;;;;;;2.90;0.50;;;;;;;31.18;49.73;100380.28;5037460;28;20402;-70
2022/08/24 11:42:21;;;;;;;2.65;0.45;;;;;;;31.32;47.43;100379.19;5018797;28;20037;-70
2022/08/24 11:45:01;;;;;;;0.90;0.40;;;;;;;31.34;47.09;100374.63;5034666;28;20041;-70
2022/08/24 11:47:51;;;;;;;2.63;0.30;;;;;;;31.32;46.48;100376.31;5037337;28;20549;-70